createdAt,value
2023-05-14T00:05:22.861Z,9.3786
2023-05-14T00:06:23.772Z,9.4270
2023-05-14T00:07:24.662Z,9.5062
2023-05-14T00:08:25.549Z,9.3341
2023-05-14T00:09:26.401Z,9.3139
2023-05-14T00:10:27.265Z,9.2930
2023-05-14T00:11:28.127Z,9.3272
2023-05-14T00:12:29.037Z,9.2917
2023-05-14T00:13:29.927Z,9.3039
2023-05-14T00:14:30.764Z,9.3694
2023-05-14T00:15:33.622Z,9.3356
2023-05-14T00:16:32.436Z,9.2811
2023-05-14T00:17:34.390Z,9.2672
2023-05-14T00:18:36.221Z,9.2982
2023-05-14T00:19:41.105Z,9.1459
2023-05-14T00:21:41.372Z,9.2813
2023-05-14T00:22:43.924Z,9.1599
2023-05-14T00:23:44.799Z,9.0772
2023-05-14T00:24:46.294Z,9.1066
2023-05-14T00:25:47.973Z,9.2180
2023-05-14T00:26:48.871Z,9.2114
2023-05-14T00:27:50.371Z,9.0673
2023-05-14T00:28:51.905Z,8.9446
2023-05-14T00:29:53.236Z,8.9370
2023-05-14T00:30:54.750Z,8.7998
2023-05-14T00:31:55.664Z,8.7477
2023-05-14T00:32:56.581Z,8.6592
2023-05-14T00:33:58.075Z,8.5964
2023-05-14T00:34:59.562Z,8.5832
2023-05-14T00:36:00.441Z,8.5700
2023-05-14T00:37:01.364Z,8.4621
2023-05-14T00:38:02.602Z,8.3832
2023-05-14T00:39:03.484Z,8.3440
2023-05-14T00:40:04.625Z,8.1679
2023-05-14T00:41:05.555Z,8.2272
2023-05-14T00:42:06.488Z,8.2039
2023-05-14T00:43:07.346Z,8.2358
2023-05-14T00:44:08.244Z,8.1740
2023-05-14T00:45:09.087Z,8.1263
2023-05-14T00:46:10.225Z,8.2045
2023-05-14T00:47:11.109Z,8.2143
2023-05-14T00:48:11.962Z,8.3263
2023-05-14T00:49:12.827Z,8.2588
2023-05-14T00:50:13.709Z,8.2710
2023-05-14T00:51:14.581Z,8.2976
2023-05-14T00:52:16.066Z,8.2534
2023-05-14T00:53:17.572Z,8.2307
2023-05-14T00:54:18.455Z,8.4183
2023-05-14T00:55:20.803Z,8.2813
2023-05-14T00:56:22.417Z,8.2792
2023-05-14T00:57:23.306Z,8.3520
2023-05-14T00:58:24.168Z,8.3726
2023-05-14T01:00:26.144Z,8.3842
2023-05-14T01:01:27.133Z,8.3354
2023-05-14T01:02:28.090Z,8.3061
2023-05-14T01:03:30.080Z,8.2798
2023-05-14T01:04:31.035Z,8.2417
2023-05-14T01:05:31.924Z,8.1944
2023-05-14T01:06:33.754Z,8.2050
2023-05-14T01:07:34.650Z,8.2045
2023-05-14T01:08:36.162Z,8.2366
2023-05-14T01:09:37.053Z,8.2682
2023-05-14T01:10:37.967Z,8.2746
2023-05-14T01:11:39.429Z,8.2823
2023-05-14T01:12:40.331Z,8.3012
2023-05-14T01:13:41.245Z,8.3379
2023-05-14T01:14:42.181Z,8.3494
2023-05-14T01:15:43.387Z,8.3669
2023-05-14T01:16:44.292Z,8.3532
2023-05-14T01:17:46.021Z,8.3597
2023-05-14T01:18:47.678Z,8.4015
2023-05-14T01:19:48.597Z,8.4240
2023-05-14T01:20:50.137Z,8.4306
2023-05-14T01:21:51.108Z,8.4284
2023-05-14T01:22:51.992Z,8.4344
2023-05-14T01:23:52.930Z,8.4431
2023-05-14T01:24:54.904Z,8.4344
2023-05-14T01:25:55.844Z,8.4431
2023-05-14T01:26:57.316Z,8.4698
2023-05-14T01:27:58.841Z,8.4745
2023-05-14T01:29:00.499Z,8.5331
2023-05-14T01:30:01.396Z,8.5035
2023-05-14T01:31:03.160Z,8.5459
2023-05-14T01:32:04.896Z,8.5388
2023-05-14T01:33:06.006Z,8.5826
2023-05-14T01:34:07.831Z,8.5831
2023-05-14T01:35:09.395Z,8.5739
2023-05-14T01:36:10.293Z,8.5843
2023-05-14T01:37:11.217Z,8.5926
2023-05-14T01:38:12.152Z,8.6492
2023-05-14T01:39:13.100Z,8.5878
2023-05-14T01:41:14.809Z,8.5880
2023-05-14T01:42:15.759Z,8.6388
2023-05-14T01:43:16.720Z,8.6627
2023-05-14T01:44:17.675Z,8.6600
2023-05-14T01:45:18.609Z,8.6500
2023-05-14T01:46:19.785Z,8.6515
2023-05-14T01:47:20.762Z,8.7046
2023-05-14T01:48:21.744Z,8.7509
2023-05-14T01:49:22.706Z,8.7313
2023-05-14T01:50:23.740Z,8.7107
2023-05-14T01:51:24.725Z,8.6913
2023-05-14T01:52:25.630Z,8.7391
2023-05-14T01:53:26.549Z,8.7441
2023-05-14T01:54:27.457Z,8.7310
2023-05-14T01:55:28.553Z,8.7259
2023-05-14T01:56:29.536Z,8.7355
2023-05-14T01:57:30.428Z,8.7067
2023-05-14T01:59:32.096Z,8.7558
2023-05-14T02:00:33.027Z,8.7266
2023-05-14T02:01:34.449Z,8.7063
2023-05-14T02:02:35.452Z,8.7184
2023-05-14T02:03:36.416Z,8.7119
2023-05-14T02:04:37.354Z,8.7383
2023-05-14T02:05:38.278Z,8.8251
2023-05-14T02:06:39.204Z,8.7167
2023-05-14T02:07:40.121Z,8.7971
2023-05-14T02:08:41.109Z,8.8524
2023-05-14T02:09:42.012Z,8.8778
2023-05-14T02:10:42.972Z,8.9108
2023-05-14T02:11:43.923Z,8.8515
2023-05-14T02:12:45.009Z,8.7484
2023-05-14T02:13:45.906Z,8.6994
2023-05-14T02:14:46.861Z,8.6680
2023-05-14T02:15:47.819Z,8.6945
2023-05-14T02:16:48.743Z,8.6665
2023-05-14T02:17:49.697Z,8.6245
2023-05-14T02:18:50.704Z,8.6285
2023-05-14T02:19:51.672Z,8.6133
2023-05-14T02:20:52.615Z,8.6044
2023-05-14T02:21:53.537Z,8.4793
2023-05-14T02:22:54.497Z,8.5392
2023-05-14T02:23:55.432Z,8.4964
2023-05-14T02:24:56.362Z,8.4487
2023-05-14T02:25:57.486Z,8.4460
2023-05-14T02:27:00.196Z,8.4208
2023-05-14T02:28:01.081Z,8.4759
2023-05-14T02:29:02.249Z,8.4571
2023-05-14T02:30:03.137Z,8.4473
2023-05-14T02:31:04.096Z,8.4668
2023-05-14T02:32:05.772Z,8.4675
2023-05-14T02:33:07.456Z,8.4871
2023-05-14T02:34:09.029Z,8.3937
2023-05-14T02:35:10.327Z,8.4170
2023-05-14T02:36:11.870Z,8.4585
2023-05-14T02:37:13.412Z,8.5800
2023-05-14T02:39:15.789Z,8.5904
2023-05-14T02:40:16.720Z,8.6203
2023-05-14T02:41:18.323Z,8.5967
2023-05-14T02:42:19.323Z,8.5540
2023-05-14T02:43:20.282Z,8.6486
2023-05-14T02:52:27.987Z,8.2106
2023-05-14T02:53:28.933Z,8.2352
2023-05-14T02:54:29.860Z,7.9786
2023-05-14T02:55:30.829Z,7.9517
2023-05-14T02:56:31.764Z,7.9894
2023-05-14T02:58:34.808Z,8.0081
2023-05-14T02:59:35.956Z,8.0635
2023-05-14T03:00:37.126Z,8.1264
2023-05-14T03:01:38.658Z,8.1184
2023-05-14T03:07:43.740Z,8.3098
2023-05-14T03:08:44.654Z,8.3569
2023-05-14T03:12:49.137Z,8.1189
2023-05-14T03:13:50.076Z,8.1113
2023-05-14T03:14:51.123Z,8.0641
2023-05-14T03:15:52.643Z,8.0564
2023-05-14T03:16:53.798Z,8.0597
2023-05-14T03:17:54.763Z,8.0724
2023-05-14T03:18:55.952Z,8.1066
2023-05-14T03:19:56.867Z,8.2198
2023-05-14T03:21:59.511Z,8.2882
2023-05-14T03:23:00.453Z,8.1708
2023-05-14T03:24:01.372Z,8.0819
2023-05-14T03:25:03.401Z,7.9159
2023-05-14T03:26:04.541Z,7.7638
2023-05-14T03:27:05.482Z,7.7409
2023-05-14T03:28:06.467Z,7.6321
2023-05-14T03:29:07.405Z,7.5551
2023-05-14T03:30:08.379Z,7.5804
2023-05-14T03:31:09.351Z,7.6015
2023-05-14T03:32:10.266Z,7.5546
2023-05-14T03:33:11.175Z,7.5394
2023-05-14T03:34:12.159Z,7.4613
2023-05-14T03:35:13.082Z,7.5222
2023-05-14T03:36:14.036Z,7.4559
2023-05-14T03:37:14.936Z,7.5558
2023-05-14T03:38:15.922Z,7.4778
2023-05-14T03:39:16.839Z,7.6159
2023-05-14T03:40:17.782Z,7.4536
2023-05-14T03:42:19.540Z,7.5685
2023-05-14T03:43:20.532Z,7.5598
2023-05-14T03:44:21.464Z,7.3621
2023-05-14T03:45:22.415Z,7.1738
2023-05-14T03:46:23.598Z,7.0536
2023-05-14T03:47:24.500Z,6.9786
2023-05-14T03:48:25.560Z,6.9504
2023-05-14T03:49:26.610Z,6.9863
2023-05-14T03:50:27.619Z,6.9811
2023-05-14T03:51:28.554Z,7.0311
2023-05-14T03:52:29.761Z,7.0640
2023-05-14T03:53:30.717Z,7.0971
2023-05-14T03:54:32.881Z,7.1284
2023-05-14T03:55:34.452Z,7.1692
2023-05-14T03:56:36.070Z,7.2192
2023-05-14T03:57:37.037Z,7.2788
2023-05-14T03:58:38.567Z,7.3067
2023-05-14T03:59:40.135Z,7.3365
2023-05-14T04:00:41.086Z,7.3630
2023-05-14T04:01:43.403Z,7.3988
2023-05-14T04:02:44.785Z,7.4390
2023-05-14T04:03:46.182Z,7.4840
2023-05-14T04:05:48.110Z,7.5677
2023-05-14T04:06:49.021Z,7.6186
2023-05-14T04:09:51.815Z,7.6953
2023-05-14T04:13:55.688Z,7.9024
2023-05-14T04:14:56.655Z,7.9194
2023-05-14T04:15:57.641Z,7.9744
2023-05-14T04:17:00.104Z,8.0353
2023-05-14T04:18:01.236Z,8.0879
2023-05-14T04:19:02.271Z,8.1250
2023-05-14T04:20:03.982Z,8.1739
2023-05-14T04:22:06.691Z,8.2639
2023-05-14T04:23:08.212Z,8.2938
2023-05-14T04:25:10.623Z,8.3288
2023-05-14T04:26:11.556Z,8.3549
2023-05-14T04:27:12.560Z,8.4012
2023-05-14T04:28:14.733Z,8.4443
2023-05-14T04:29:16.283Z,8.4810
2023-05-14T04:30:17.828Z,8.4995
2023-05-14T04:31:18.853Z,8.5308
2023-05-14T04:32:20.458Z,8.5519
2023-05-14T04:33:22.049Z,8.5659
2023-05-14T04:34:22.963Z,8.5950
2023-05-14T04:35:25.258Z,8.6290
2023-05-14T04:36:26.896Z,8.6716
2023-05-14T04:37:27.850Z,8.6896
2023-05-14T04:38:29.432Z,8.7275
2023-05-14T04:39:30.333Z,8.7625
2023-05-14T04:40:31.220Z,8.7855
2023-05-14T04:41:32.932Z,8.8112
2023-05-14T04:42:34.480Z,8.8533
2023-05-14T04:43:35.977Z,8.9485
2023-05-14T04:44:36.884Z,8.9545
2023-05-14T04:45:38.430Z,8.9806
2023-05-14T04:46:39.407Z,8.9676
2023-05-14T04:47:40.389Z,8.9792
2023-05-14T04:48:41.669Z,8.9967
2023-05-14T04:49:43.182Z,9.0084
2023-05-14T04:50:45.227Z,9.0099
2023-05-14T04:51:46.157Z,8.9902
2023-05-14T04:52:47.101Z,9.0194
2023-05-14T04:53:48.005Z,9.0579
2023-05-14T04:54:48.967Z,9.1354
2023-05-14T04:55:49.886Z,9.2116
2023-05-14T04:56:50.812Z,9.2982
2023-05-14T04:57:51.728Z,9.4630
2023-05-14T04:58:52.663Z,9.6143
2023-05-14T04:59:53.575Z,9.6784
2023-05-14T05:00:54.512Z,9.7005
2023-05-14T05:01:55.454Z,9.7686
2023-05-14T05:02:56.405Z,9.8235
2023-05-14T05:03:57.315Z,9.8642
2023-05-14T05:04:58.260Z,9.9198
2023-05-14T05:05:59.200Z,9.9992
2023-05-14T05:07:00.130Z,10.0935
2023-05-14T05:08:01.046Z,10.0234
2023-05-14T05:09:02.239Z,10.0070
2023-05-14T05:10:03.328Z,9.9887
2023-05-14T05:11:04.914Z,10.0799
2023-05-14T05:12:06.642Z,10.0435
2023-05-14T05:13:08.211Z,10.0225
2023-05-14T05:14:09.225Z,10.0738
2023-05-14T05:15:10.831Z,10.0668
2023-05-14T05:16:12.409Z,10.0254
2023-05-14T05:17:14.430Z,10.0029
2023-05-14T05:18:15.894Z,9.8239
2023-05-14T05:19:16.992Z,9.7620
2023-05-14T05:20:18.520Z,9.9477
2023-05-14T05:21:20.335Z,10.0212
2023-05-14T05:22:21.240Z,10.0496
2023-05-14T05:23:22.131Z,10.1307
2023-05-14T05:24:23.075Z,10.1691
2023-05-14T05:25:24.009Z,10.2227
2023-05-14T05:26:24.928Z,10.2759
2023-05-14T05:27:25.845Z,10.3798
2023-05-14T05:28:26.834Z,10.3110
2023-05-14T05:29:27.729Z,10.2393
2023-05-14T05:30:28.676Z,10.2663
2023-05-14T05:31:30.780Z,10.2571
2023-05-14T05:32:31.792Z,10.2641
2023-05-14T05:33:33.329Z,10.2817
2023-05-14T05:34:34.979Z,10.3156
2023-05-14T05:36:37.331Z,10.3985
2023-05-14T05:37:38.891Z,10.5222
2023-05-14T05:38:39.793Z,10.6264
2023-05-14T05:39:40.757Z,10.5526
2023-05-14T05:40:42.246Z,10.5942
2023-05-14T05:41:43.167Z,10.5459
2023-05-14T05:42:44.115Z,10.5745
2023-05-14T05:43:45.656Z,10.6620
2023-05-14T05:44:47.193Z,10.5614
2023-05-14T05:45:48.147Z,10.7159
2023-05-14T05:47:49.856Z,10.5084
2023-05-14T05:48:50.764Z,10.6010
2023-05-14T05:50:53.333Z,10.7734
2023-05-14T05:51:54.244Z,10.7200
2023-05-14T05:52:55.160Z,10.6906
2023-05-14T05:54:57.309Z,10.8038
2023-05-14T05:55:58.230Z,10.8498
2023-05-14T05:56:59.107Z,10.9459
2023-05-14T05:59:01.789Z,11.1770
2023-05-14T06:00:03.973Z,11.2346
2023-05-14T06:01:04.873Z,11.2563
2023-05-14T06:02:05.808Z,11.3185
2023-05-14T06:03:06.746Z,11.3829
2023-05-14T06:04:07.666Z,11.4096
2023-05-14T06:05:08.595Z,11.3898
2023-05-14T06:06:09.547Z,11.2628
2023-05-14T06:07:10.587Z,11.2187
2023-05-14T06:08:11.740Z,11.0619
2023-05-14T06:09:12.661Z,10.7876
2023-05-14T06:10:13.600Z,10.7187
2023-05-14T06:11:15.107Z,10.7122
2023-05-14T06:12:16.637Z,10.8292
2023-05-14T06:13:18.530Z,10.8572
2023-05-14T06:14:19.444Z,10.7200
2023-05-14T06:16:21.282Z,10.7071
2023-05-14T06:17:22.294Z,10.7693
2023-05-14T06:19:24.604Z,10.9008
2023-05-14T06:20:26.146Z,10.7229
2023-05-14T06:21:27.169Z,10.7843
2023-05-14T06:22:28.684Z,10.8443
2023-05-14T06:23:30.236Z,10.7120
2023-05-14T06:24:31.816Z,10.5964
2023-05-14T06:25:33.813Z,10.7153
2023-05-14T06:26:34.694Z,10.6709
2023-05-14T06:27:36.250Z,10.6947
2023-05-14T06:28:37.703Z,10.6194
2023-05-14T06:29:38.590Z,10.5170
2023-05-14T06:30:39.481Z,10.5406
2023-05-14T06:31:41.104Z,10.4302
2023-05-14T06:32:42.672Z,10.4922
2023-05-14T06:33:43.575Z,10.5992
2023-05-14T06:34:45.142Z,10.6878
2023-05-14T06:35:46.673Z,10.7800
2023-05-14T06:36:47.596Z,10.7556
2023-05-14T06:37:48.477Z,10.8770
2023-05-14T06:38:50.238Z,10.9393
2023-05-14T06:39:51.158Z,10.9826
2023-05-14T06:40:52.118Z,10.8881
2023-05-14T06:41:53.745Z,10.9326
2023-05-14T06:42:54.700Z,11.0152
2023-05-14T06:43:54.997Z,11.1678
2023-05-14T06:45:01.527Z,11.2073
2023-05-14T06:46:02.527Z,11.1952
2023-05-14T06:51:06.807Z,11.1365
2023-05-14T06:52:24.528Z,11.1629
2023-05-14T06:53:08.921Z,11.0938
2023-05-14T06:54:09.890Z,11.1473
2023-05-14T06:55:10.818Z,11.1827
2023-05-14T06:56:12.060Z,11.2215
2023-05-14T06:57:13.718Z,11.1493
2023-05-14T06:58:14.666Z,11.2408
2023-05-14T06:59:16.214Z,11.1646
2023-05-14T07:00:17.827Z,11.1777
2023-05-14T07:01:19.857Z,11.3812
2023-05-14T07:03:22.276Z,11.6228
2023-05-14T07:04:23.269Z,11.6183
2023-05-14T07:05:24.228Z,11.7742
2023-05-14T07:07:25.954Z,11.7592
2023-05-14T07:08:26.893Z,11.5677
2023-05-14T07:10:28.883Z,11.7199
2023-05-14T07:11:29.778Z,11.6952
2023-05-14T07:12:30.740Z,11.7530
2023-05-14T07:14:32.507Z,11.7013
2023-05-14T07:15:33.437Z,11.3081
2023-05-14T07:16:34.393Z,11.2495
2023-05-14T07:17:35.450Z,11.4115
2023-05-14T07:18:36.409Z,11.4811
2023-05-14T07:19:37.373Z,11.4215
2023-05-14T07:20:38.344Z,11.3975
2023-05-14T07:21:39.310Z,11.3504
2023-05-14T07:22:40.319Z,11.5703
2023-05-14T07:23:41.282Z,11.7761
2023-05-14T07:24:42.247Z,11.8625
2023-05-14T07:25:43.210Z,11.9059
2023-05-14T07:26:44.190Z,11.8767
2023-05-14T07:27:45.164Z,12.1518
2023-05-14T07:28:46.093Z,12.3042
2023-05-14T07:29:47.015Z,12.5032
2023-05-14T07:30:47.915Z,12.7208
2023-05-14T07:31:49.023Z,12.8159
2023-05-14T07:32:50.012Z,12.6036
2023-05-14T07:33:50.925Z,13.0673
2023-05-14T07:34:51.852Z,13.3458
2023-05-14T07:35:52.791Z,13.5175
2023-05-14T07:36:54.342Z,13.5706
2023-05-14T07:37:55.870Z,13.3622
2023-05-14T07:38:57.117Z,13.5739
2023-05-14T07:39:58.642Z,13.2583
2023-05-14T07:40:59.547Z,13.2134
2023-05-14T07:43:01.952Z,12.7727
2023-05-14T07:44:02.846Z,12.9842
2023-05-14T07:45:03.778Z,12.8391
2023-05-14T07:46:05.228Z,13.3085
2023-05-14T07:47:06.162Z,13.7158
2023-05-14T07:48:07.218Z,14.0422
2023-05-14T07:49:08.426Z,13.9930
2023-05-14T07:50:09.922Z,14.4770
2023-05-14T07:51:10.858Z,14.7082
2023-05-14T07:52:23.275Z,14.9866
2023-05-14T07:56:16.961Z,16.1348
2023-05-14T07:57:17.869Z,16.4632
2023-05-14T07:58:19.419Z,15.5941
2023-05-14T07:59:20.967Z,15.5187
2023-05-14T08:00:22.054Z,15.5908
2023-05-14T08:01:23.784Z,15.6779
2023-05-14T08:02:24.768Z,15.0264
2023-05-14T08:03:42.947Z,14.7815
2023-05-14T08:04:44.487Z,14.6077
2023-05-14T08:05:45.436Z,15.1943
2023-05-14T08:06:46.290Z,15.2389
2023-05-14T08:07:47.806Z,15.3873
2023-05-14T08:08:48.730Z,15.5446
2023-05-14T08:09:50.175Z,15.1835
2023-05-14T08:10:51.152Z,15.3047
2023-05-14T08:11:52.415Z,15.5666
2023-05-14T08:12:53.512Z,15.8311
2023-05-14T08:13:54.392Z,15.8398
2023-05-14T08:14:55.300Z,15.5130
2023-05-14T08:15:56.868Z,15.6710
2023-05-14T08:16:57.798Z,15.7538
2023-05-14T08:17:58.833Z,15.2650
2023-05-14T08:19:00.354Z,14.9550
2023-05-14T08:20:01.829Z,14.9837
2023-05-14T08:21:03.654Z,15.4064
2023-05-14T08:22:05.227Z,15.9904
2023-05-14T08:23:06.151Z,15.6667
2023-05-14T08:24:07.741Z,15.8687
2023-05-14T08:25:09.201Z,16.0698
2023-05-14T08:26:10.206Z,16.0553
2023-05-14T08:27:11.790Z,16.0352
2023-05-14T08:28:35.593Z,15.6706
2023-05-14T08:29:16.126Z,14.7515
2023-05-14T08:30:14.697Z,14.7689
2023-05-14T08:31:15.641Z,14.4293
2023-05-14T08:32:23.347Z,14.5295
2023-05-14T08:34:21.002Z,14.4865
2023-05-14T08:35:28.820Z,14.6888
2023-05-14T08:38:26.449Z,14.6775
2023-05-14T08:39:27.349Z,14.7537
2023-05-14T08:40:28.213Z,14.7602
2023-05-14T08:41:29.123Z,14.8777
2023-05-14T08:42:30.590Z,15.1860
2023-05-14T08:43:31.489Z,15.1727
2023-05-14T08:44:32.352Z,15.0214
2023-05-14T08:45:33.918Z,15.2354
2023-05-14T08:46:34.840Z,15.7441
2023-05-14T08:47:35.771Z,15.5442
2023-05-14T08:48:36.658Z,15.6920
2023-05-14T08:49:37.571Z,15.4400
2023-05-14T08:53:43.801Z,15.5456
2023-05-14T08:54:44.727Z,16.0563
2023-05-14T08:55:45.596Z,16.3175
2023-05-14T08:56:47.192Z,16.4261
2023-05-14T08:57:48.412Z,16.2951
2023-05-14T08:58:50.408Z,15.7874
2023-05-14T08:59:51.263Z,15.9248
2023-05-14T09:00:52.157Z,16.6826
2023-05-14T09:02:05.048Z,17.1904
2023-05-14T09:02:55.391Z,16.9519
2023-05-14T09:03:57.010Z,16.9130
2023-05-14T09:04:57.882Z,16.9825
2023-05-14T09:06:00.196Z,17.8589
2023-05-14T09:07:01.976Z,17.4203
2023-05-14T09:08:03.438Z,17.8785
2023-05-14T09:10:04.986Z,16.6128
2023-05-14T09:11:05.849Z,16.7075
2023-05-14T09:12:07.217Z,16.9095
2023-05-14T09:13:08.404Z,16.7728
2023-05-14T09:14:09.192Z,17.5307
2023-05-14T09:15:10.788Z,16.8540
2023-05-14T09:16:12.429Z,17.1771
2023-05-14T09:17:13.290Z,16.7072
2023-05-14T09:18:14.149Z,17.0478
2023-05-14T09:19:15.137Z,17.1382
2023-05-14T09:20:16.029Z,16.6606
2023-05-14T09:21:16.872Z,16.5213
2023-05-14T09:22:17.683Z,16.0808
2023-05-14T09:23:19.120Z,15.6237
2023-05-14T09:24:19.987Z,15.5324
2023-05-14T09:25:21.445Z,15.2041
2023-05-14T09:26:22.334Z,15.7439
2023-05-14T09:27:23.774Z,15.6104
2023-05-14T09:28:25.319Z,15.2857
2023-05-14T09:29:26.173Z,15.4002
2023-05-14T09:30:27.343Z,15.3647
2023-05-14T09:31:28.312Z,14.8942
2023-05-14T09:32:29.233Z,14.6977
2023-05-14T09:33:30.735Z,14.6642
2023-05-14T09:34:31.628Z,14.6281
2023-05-14T09:35:32.672Z,14.6464
2023-05-14T09:36:34.182Z,14.8862
2023-05-14T09:37:35.366Z,15.0718
2023-05-14T09:38:36.251Z,15.5500
2023-05-14T09:39:37.173Z,15.1603
2023-05-14T09:40:38.059Z,15.0033
2023-05-14T09:41:38.946Z,15.5552
2023-05-14T09:43:41.349Z,16.0569
2023-05-14T09:44:42.224Z,16.0424
2023-05-14T09:46:44.969Z,16.4159
2023-05-14T09:47:47.177Z,16.3350
2023-05-14T09:48:48.241Z,16.3776
2023-05-14T09:49:49.731Z,16.6250
2023-05-14T09:50:50.686Z,16.7067
2023-05-14T09:51:52.513Z,17.1388
2023-05-14T09:52:54.080Z,16.7018
2023-05-14T09:53:54.960Z,16.3931
2023-05-14T09:54:55.838Z,16.9544
2023-05-14T09:55:56.683Z,16.7824
2023-05-14T09:56:57.539Z,16.4583
2023-05-14T10:01:01.158Z,15.2074
2023-05-14T10:02:02.302Z,14.6890
2023-05-14T10:03:03.208Z,14.9161
2023-05-14T10:04:04.116Z,15.1155
2023-05-14T10:05:05.041Z,15.4072
2023-05-14T10:06:05.889Z,15.3627
2023-05-14T10:08:07.475Z,14.8962
2023-05-14T10:09:08.376Z,15.1779
2023-05-14T10:11:10.244Z,15.0211
2023-05-14T10:12:11.113Z,15.0359
2023-05-14T10:13:33.892Z,15.1558
2023-05-14T10:14:16.475Z,15.5121
2023-05-14T10:15:17.394Z,15.5206
2023-05-14T10:16:18.342Z,15.2613
2023-05-14T10:17:19.886Z,15.6294
2023-05-14T10:18:21.409Z,15.7393
2023-05-14T10:19:23.078Z,15.8829
2023-05-14T10:20:24.246Z,15.7867
2023-05-14T10:21:25.376Z,15.6377
2023-05-14T10:22:26.780Z,16.0314
2023-05-14T10:23:27.986Z,15.7907
2023-05-14T10:24:30.996Z,15.3023
2023-05-14T10:25:31.880Z,15.7303
2023-05-14T10:27:34.092Z,16.2108
2023-05-14T10:28:34.951Z,16.2926
2023-05-14T10:29:36.447Z,16.0398
2023-05-14T10:30:37.335Z,15.6793
2023-05-14T10:31:38.255Z,15.3395
2023-05-14T10:32:39.206Z,15.1624
2023-05-14T10:33:40.114Z,15.5149
2023-05-14T10:34:41.007Z,15.3624
2023-05-14T10:35:42.556Z,15.0029
2023-05-14T10:36:43.986Z,14.8806
2023-05-14T10:37:44.962Z,15.0334
2023-05-14T10:38:47.248Z,15.2888
2023-05-14T10:39:48.328Z,15.5451
2023-05-14T10:41:14.275Z,14.9528
2023-05-14T10:41:50.080Z,15.1565
2023-05-14T10:42:50.963Z,15.2922
2023-05-14T10:43:51.854Z,15.2316
2023-05-14T10:45:54.931Z,15.6305
2023-05-14T10:46:56.659Z,15.4752
2023-05-14T10:47:57.459Z,15.3103
2023-05-14T10:48:58.713Z,15.2455
2023-05-14T10:50:00.214Z,15.0777
2023-05-14T10:51:01.157Z,15.3202
2023-05-14T10:52:02.287Z,15.8741
2023-05-14T10:53:03.140Z,15.8643
2023-05-14T10:54:04.070Z,16.0025
2023-05-14T10:55:04.925Z,16.4000
2023-05-14T10:56:06.554Z,16.5541
2023-05-14T10:57:08.052Z,16.1990
2023-05-14T10:59:08.853Z,15.8824
2023-05-14T11:00:11.019Z,15.7134
2023-05-14T11:01:11.909Z,15.9743
2023-05-14T11:03:14.905Z,15.7059
2023-05-14T11:04:16.097Z,15.7965
2023-05-14T11:05:33.375Z,16.3929
2023-05-14T11:06:17.162Z,16.7389
2023-05-14T11:07:18.026Z,16.9304
2023-05-14T11:08:22.378Z,17.1229
2023-05-14T11:11:22.140Z,19.0644
2023-05-14T11:12:23.071Z,19.9776
2023-05-14T11:13:24.706Z,20.1988
2023-05-14T11:14:25.781Z,20.1626
2023-05-14T11:15:27.722Z,20.5255
2023-05-14T11:16:28.822Z,20.1497
2023-05-14T11:17:29.883Z,19.9636
2023-05-14T11:18:30.795Z,20.2267
2023-05-14T11:19:32.435Z,19.5893
2023-05-14T11:20:33.588Z,19.0071
2023-05-14T11:21:35.223Z,17.8654
2023-05-14T11:22:36.532Z,17.0141
2023-05-14T11:23:37.581Z,16.1603
2023-05-14T11:24:38.460Z,16.3975
2023-05-14T11:26:41.675Z,15.8546
2023-05-14T11:27:42.538Z,15.8868
2023-05-14T11:28:43.450Z,15.7989
2023-05-14T11:29:44.354Z,15.5037
2023-05-14T11:30:45.645Z,15.3602
2023-05-14T11:31:46.539Z,14.9957
2023-05-14T11:32:48.041Z,15.2122
2023-05-14T11:37:53.946Z,14.9003
2023-05-14T11:38:55.022Z,14.9571
2023-05-14T11:42:10.542Z,15.6209
2023-05-14T11:44:01.426Z,15.6213
2023-05-14T11:45:03.152Z,15.8784
2023-05-14T11:46:04.124Z,16.2551
2023-05-14T11:47:05.812Z,16.0339
2023-05-14T11:48:06.815Z,16.3327
2023-05-14T11:49:07.741Z,16.1382
2023-05-14T11:50:19.997Z,16.0852
2023-05-14T11:54:16.661Z,16.1844
2023-05-14T11:55:18.202Z,15.9715
2023-05-14T11:56:19.602Z,16.2460
2023-05-14T11:57:20.503Z,16.1545
2023-05-14T11:58:21.485Z,16.5334
2023-05-14T11:59:24.315Z,16.3792
2023-05-14T12:00:23.759Z,16.5668
2023-05-14T12:01:24.839Z,16.6922
2023-05-14T12:02:26.489Z,16.9491
2023-05-14T12:03:28.103Z,17.0942
2023-05-14T12:05:30.508Z,17.1581
2023-05-14T12:06:32.099Z,17.0029
2023-05-14T12:07:33.599Z,16.7601
2023-05-14T12:08:34.592Z,16.4098
2023-05-14T12:09:35.863Z,15.7495
2023-05-14T12:10:36.920Z,15.1564
2023-05-14T12:11:38.233Z,14.5054
2023-05-14T12:12:39.546Z,14.0784
2023-05-14T12:13:40.784Z,13.2656
2023-05-14T12:14:41.851Z,13.1142
2023-05-14T12:15:42.228Z,12.8993
2023-05-14T12:16:43.256Z,12.7698
2023-05-14T12:17:44.911Z,12.6118
2023-05-14T12:18:45.875Z,12.4951
2023-05-14T12:19:47.598Z,12.3742
2023-05-14T12:20:48.539Z,12.3390
2023-05-14T12:21:49.501Z,12.2582
2023-05-14T12:22:50.554Z,12.2447
2023-05-14T12:23:51.491Z,12.1280
2023-05-14T12:24:52.474Z,12.0703
2023-05-14T12:25:53.422Z,12.0915
2023-05-14T12:26:55.259Z,12.1937
2023-05-14T12:27:56.254Z,12.3976
2023-05-14T12:28:57.210Z,12.2933
2023-05-14T12:30:06.289Z,12.2871
2023-05-14T12:31:00.378Z,12.2618
2023-05-14T12:32:01.325Z,12.3810
2023-05-14T12:33:02.344Z,12.4178
2023-05-14T12:34:03.987Z,12.4180
2023-05-14T12:35:05.022Z,12.3851
2023-05-14T12:36:20.656Z,12.3758
2023-05-14T12:37:07.636Z,12.3747
2023-05-14T12:38:08.572Z,12.4242
2023-05-14T12:39:09.561Z,12.4300
2023-05-14T12:40:10.507Z,12.5425
2023-05-14T12:41:11.551Z,12.6680
2023-05-14T12:42:12.996Z,12.5544
2023-05-14T12:43:13.985Z,12.6633
2023-05-14T12:44:14.984Z,12.5675
2023-05-14T12:45:15.922Z,12.7321
2023-05-14T12:46:16.905Z,12.6179
2023-05-14T12:47:18.045Z,12.7921
2023-05-14T12:48:19.089Z,12.8283
2023-05-14T12:49:20.077Z,13.0580
2023-05-14T12:50:21.173Z,13.0673
2023-05-14T12:51:22.131Z,13.3022
2023-05-14T12:52:36.903Z,13.0699
2023-05-14T12:54:25.095Z,13.0746
2023-05-14T12:57:27.794Z,13.5267
2023-05-14T12:59:29.614Z,13.5004
2023-05-14T13:00:30.568Z,13.7334
2023-05-14T13:01:31.628Z,13.7402
2023-05-14T13:02:32.705Z,13.8450
2023-05-14T13:03:33.674Z,13.8294
2023-05-14T13:04:35.020Z,13.7626
2023-05-14T13:05:35.978Z,13.7138
2023-05-14T13:06:36.990Z,13.8170
2023-05-14T13:07:38.003Z,14.1423
2023-05-14T13:08:39.689Z,14.2850
2023-05-14T13:09:39.002Z,14.2599
2023-05-14T13:10:40.059Z,14.4521
2023-05-14T13:11:41.035Z,14.7314
2023-05-14T13:12:41.975Z,14.8820
2023-05-14T13:13:42.946Z,14.7337
2023-05-14T13:14:43.877Z,14.5141
2023-05-14T13:16:45.630Z,14.6616
2023-05-14T13:17:46.659Z,14.7089
2023-05-14T13:18:47.634Z,14.3924
2023-05-14T13:19:48.627Z,14.1311
2023-05-14T13:21:50.429Z,14.2112
2023-05-14T13:22:51.378Z,14.5829
2023-05-14T13:23:52.368Z,14.4486
2023-05-14T13:24:53.368Z,14.2873
2023-05-14T13:25:54.348Z,14.7264
2023-05-14T13:26:55.287Z,14.9165
2023-05-14T13:27:56.259Z,14.6265
2023-05-14T13:28:57.228Z,14.9596
2023-05-14T13:29:58.864Z,14.8513
2023-05-14T13:31:00.202Z,15.1704
2023-05-14T13:32:01.158Z,15.4609
2023-05-14T13:33:02.183Z,15.3794
2023-05-14T13:35:04.650Z,15.9992
2023-05-14T13:36:06.274Z,16.3081
2023-05-14T13:37:07.270Z,16.2816
2023-05-14T13:39:09.034Z,16.3977
2023-05-14T13:40:09.991Z,16.2516
2023-05-14T13:42:12.735Z,16.5284
2023-05-14T13:43:14.358Z,16.0759
2023-05-14T13:44:15.296Z,16.1783
2023-05-14T13:45:16.913Z,16.4328
2023-05-14T13:46:17.871Z,16.6136
2023-05-14T13:47:18.835Z,16.6139
2023-05-14T13:48:19.765Z,16.8683
2023-05-14T13:49:20.729Z,16.6425
2023-05-14T13:50:21.663Z,16.9773
2023-05-14T13:51:22.624Z,16.9487
2023-05-14T13:52:23.552Z,16.7113
2023-05-14T13:54:26.080Z,17.1260
2023-05-14T13:55:27.719Z,16.7633
2023-05-14T13:58:31.354Z,17.8709
2023-05-14T13:59:32.268Z,17.8305
2023-05-14T14:00:33.164Z,18.1811
2023-05-14T14:01:34.710Z,18.7560
2023-05-14T14:02:35.937Z,19.9552
2023-05-14T14:03:37.504Z,21.0796
2023-05-14T14:04:38.401Z,21.1148
2023-05-14T14:06:40.360Z,21.3188
2023-05-14T14:07:41.287Z,21.8063
2023-05-14T14:08:42.748Z,22.0989
2023-05-14T14:09:43.665Z,20.8255
2023-05-14T14:10:44.548Z,20.2088